createdAt,value
2019-01-04T00:00:53.608Z,0.60
2019-01-04T00:03:22.427Z,0.60
2019-01-04T00:05:51.329Z,0.60
2019-01-04T00:08:20.095Z,0.60
2019-01-04T00:10:48.867Z,0.60
2019-01-04T00:13:17.949Z,0.60
2019-01-04T00:15:46.696Z,0.50
2019-01-04T00:18:17.664Z,0.50
2019-01-04T00:20:49.002Z,0.50
2019-01-04T00:23:18.728Z,0.50
2019-01-04T00:25:50.509Z,0.50
2019-01-04T00:28:19.540Z,0.50
2019-01-04T00:30:56.976Z,0.50
2019-01-04T00:33:25.764Z,0.50
2019-01-04T00:35:54.490Z,0.50
2019-01-04T00:38:23.239Z,0.50
2019-01-04T00:40:52.983Z,0.50
2019-01-04T00:43:23.305Z,0.50
2019-01-04T00:45:52.071Z,0.50
2019-01-04T00:48:23.751Z,0.50
2019-01-04T00:50:55.493Z,0.40
2019-01-04T00:53:24.380Z,0.40
2019-01-04T00:56:05.110Z,0.40
2019-01-04T01:01:50.616Z,0.40
2019-01-04T01:04:24.867Z,0.40
2019-01-04T01:07:16.046Z,0.40
2019-01-04T01:10:19.262Z,0.40
2019-01-04T01:13:09.025Z,0.40
2019-01-04T01:15:46.560Z,0.40
2019-01-04T01:18:49.907Z,0.30
2019-01-04T01:21:33.368Z,0.30
2019-01-04T01:24:24.763Z,0.30
2019-01-04T01:27:05.187Z,0.30
2019-01-04T01:29:57.493Z,0.30
2019-01-04T01:32:47.190Z,0.30
2019-01-04T01:35:36.772Z,0.30
2019-01-04T01:38:23.186Z,0.20
2019-01-04T01:41:06.500Z,0.20
2019-01-04T01:43:53.855Z,0.10
2019-01-04T01:46:34.561Z,0.10
2019-01-04T01:49:20.814Z,0.10
2019-01-04T01:52:01.160Z,0.00
2019-01-04T01:54:30.007Z,0.10
2019-01-04T01:56:58.800Z,0.00
2019-01-04T01:59:27.666Z,0.00
2019-01-04T02:02:00.095Z,0.00
2019-01-04T02:04:34.993Z,0.00
2019-01-04T02:07:03.737Z,0.00
2019-01-04T02:09:32.398Z,0.10
2019-01-04T02:12:01.160Z,0.10
2019-01-04T02:14:29.972Z,0.10
2019-01-04T02:16:58.646Z,0.10
2019-01-04T02:19:27.398Z,0.10
2019-01-04T02:21:56.016Z,0.10
2019-01-04T02:24:24.866Z,0.20
2019-01-04T02:26:53.697Z,0.10
2019-01-04T02:29:22.337Z,0.20
2019-01-04T02:31:51.322Z,0.20
2019-01-04T02:34:20.088Z,0.20
2019-01-04T02:36:49.583Z,0.30
2019-01-04T02:39:19.740Z,0.30
2019-01-04T02:41:48.612Z,0.30
2019-01-04T02:44:17.258Z,0.30
2019-01-04T02:46:48.909Z,0.30
2019-01-04T02:49:17.603Z,0.30
2019-01-04T02:51:46.278Z,0.30
2019-01-04T02:54:15.008Z,0.40
2019-01-04T02:56:43.832Z,0.40
2019-01-04T02:59:12.584Z,0.40
2019-01-04T03:01:41.258Z,0.40
2019-01-04T03:04:09.947Z,0.40
2019-01-04T03:06:38.593Z,0.40
2019-01-04T03:09:13.141Z,0.50
2019-01-04T03:11:41.912Z,0.60
2019-01-04T03:14:10.537Z,0.60
2019-01-04T03:16:39.203Z,0.60
2019-01-04T03:19:07.966Z,0.60
2019-01-04T03:21:36.626Z,0.60
2019-01-04T03:24:05.384Z,0.60
2019-01-04T03:26:34.039Z,0.60
2019-01-04T03:29:02.869Z,0.60
2019-01-04T03:31:31.549Z,0.70
2019-01-04T03:34:00.139Z,0.70
2019-01-04T03:36:28.807Z,0.70
2019-01-04T03:38:59.037Z,0.70
2019-01-04T03:41:30.527Z,0.70
2019-01-04T03:43:59.240Z,0.70
2019-01-04T03:46:27.865Z,0.70
2019-01-04T03:48:56.551Z,0.60
2019-01-04T03:51:25.311Z,0.60
2019-01-04T03:54:01.436Z,0.60
2019-01-04T03:56:30.258Z,0.70
2019-01-04T03:58:59.027Z,0.70
2019-01-04T04:01:29.455Z,0.70
2019-01-04T04:04:01.044Z,0.70
2019-01-04T04:06:32.062Z,0.70
2019-01-04T04:09:00.705Z,0.70
2019-01-04T04:11:30.299Z,0.70
2019-01-04T04:13:59.073Z,0.70
2019-01-04T04:16:27.760Z,0.70
2019-01-04T04:18:56.489Z,0.70
2019-01-04T04:21:25.150Z,0.70
2019-01-04T04:23:53.842Z,0.70
2019-01-04T04:26:22.653Z,0.70
2019-01-04T04:28:51.362Z,0.70
2019-01-04T04:31:22.932Z,0.80
2019-01-04T04:33:51.650Z,0.80
2019-01-04T04:36:23.078Z,0.80
2019-01-04T04:38:52.930Z,0.90
2019-01-04T04:41:21.643Z,1.00
2019-01-04T04:43:59.703Z,1.00
2019-01-04T04:46:28.519Z,1.00
2019-01-04T04:48:57.183Z,1.00
2019-01-04T04:51:25.789Z,1.00
2019-01-04T04:53:54.456Z,1.00
2019-01-04T04:56:24.255Z,1.00
2019-01-04T04:58:52.845Z,1.00
2019-01-04T05:01:24.388Z,1.00
2019-01-04T05:03:52.994Z,0.90
2019-01-04T05:06:24.149Z,0.90
2019-01-04T05:08:53.019Z,0.90
2019-01-04T05:11:33.472Z,0.90
2019-01-04T05:14:02.179Z,0.90
2019-01-04T05:16:31.005Z,0.90
2019-01-04T05:19:05.870Z,0.90
2019-01-04T05:21:34.548Z,0.90
2019-01-04T05:24:03.444Z,0.80
2019-01-04T05:26:32.185Z,0.80
2019-01-04T05:29:01.048Z,0.80
2019-01-04T05:31:29.751Z,0.80
2019-01-04T05:33:58.548Z,0.80
2019-01-04T05:36:27.350Z,0.80
2019-01-04T05:38:56.018Z,0.80
2019-01-04T05:41:24.782Z,0.80
2019-01-04T05:43:56.392Z,0.80
2019-01-04T05:46:25.526Z,0.80
2019-01-04T05:49:01.238Z,0.80
2019-01-04T05:51:30.680Z,0.70
2019-01-04T05:53:59.639Z,0.70
2019-01-04T05:56:28.904Z,0.60
2019-01-04T05:58:58.346Z,0.60
2019-01-04T06:01:27.360Z,0.60
2019-01-04T06:03:57.655Z,0.60
2019-01-04T06:06:26.442Z,0.50
2019-01-04T06:08:56.774Z,0.50
2019-01-04T06:11:26.599Z,0.50
2019-01-04T06:13:56.810Z,0.50
2019-01-04T06:16:25.620Z,0.50
2019-01-04T06:18:54.340Z,0.40
2019-01-04T06:21:23.291Z,0.40
2019-01-04T06:23:52.337Z,0.40
2019-01-04T06:26:20.991Z,0.50
2019-01-04T06:28:49.837Z,0.40
2019-01-04T06:31:18.570Z,0.40
2019-01-04T06:33:47.424Z,0.40
2019-01-04T06:36:18.157Z,0.40
2019-01-04T06:38:46.983Z,0.40
2019-01-04T06:41:19.325Z,0.50
2019-01-04T06:43:55.172Z,0.50
2019-01-04T06:46:26.160Z,0.50
2019-01-04T06:48:54.989Z,0.50
2019-01-04T06:51:27.792Z,0.50
2019-01-04T06:53:54.340Z,0.50
2019-01-04T06:56:23.056Z,0.50
2019-01-04T06:58:52.241Z,0.60
2019-01-04T07:01:22.923Z,0.60
2019-01-04T07:03:51.731Z,0.60
2019-01-04T07:06:20.582Z,0.70
2019-01-04T07:08:50.070Z,0.70
2019-01-04T07:11:19.097Z,0.70
2019-01-04T07:13:47.834Z,0.70
2019-01-04T07:16:16.819Z,0.70
2019-01-04T07:18:45.521Z,0.80
2019-01-04T07:21:14.181Z,0.70
2019-01-04T07:23:42.919Z,0.70
2019-01-04T07:26:11.532Z,0.80
2019-01-04T07:28:41.135Z,0.80
2019-01-04T07:31:10.027Z,0.80
2019-01-04T07:33:38.735Z,0.80
2019-01-04T07:36:11.597Z,0.80
2019-01-04T07:38:40.253Z,0.80
2019-01-04T07:41:09.046Z,0.80
2019-01-04T07:43:37.777Z,0.80
2019-01-04T07:46:07.425Z,0.80
2019-01-04T07:48:36.106Z,0.80
2019-01-04T07:51:04.861Z,0.80
2019-01-04T07:53:33.489Z,0.80
2019-01-04T07:56:02.220Z,0.80
2019-01-04T07:58:31.117Z,0.90
2019-01-04T08:01:02.885Z,0.90
2019-01-04T08:03:31.665Z,0.90
2019-01-04T08:06:00.382Z,0.90
2019-01-04T08:08:29.238Z,0.90
2019-01-04T08:11:00.727Z,0.90
2019-01-04T08:13:29.518Z,0.90
2019-01-04T08:15:58.337Z,1.00
2019-01-04T08:18:27.029Z,1.00
2019-01-04T08:20:56.048Z,1.00
2019-01-04T08:23:24.771Z,1.00
2019-01-04T08:25:53.509Z,1.00
2019-01-04T08:28:22.298Z,1.00
2019-01-04T08:30:51.323Z,1.00
2019-01-04T08:33:20.123Z,1.10
2019-01-04T08:35:51.258Z,1.00
2019-01-04T08:38:26.611Z,1.10
2019-01-04T08:40:56.467Z,1.10
2019-01-04T08:43:25.237Z,1.10
2019-01-04T08:45:59.830Z,1.20
2019-01-04T08:48:28.610Z,1.20
2019-01-04T08:50:59.133Z,1.20
2019-01-04T08:53:55.957Z,1.20
2019-01-04T08:56:28.392Z,1.20
2019-01-04T08:58:57.092Z,1.30
2019-01-04T09:01:26.133Z,1.30
2019-01-04T09:04:02.171Z,1.30
2019-01-04T09:06:30.962Z,1.10
2019-01-04T09:08:59.821Z,1.20
2019-01-04T09:11:37.920Z,1.20
2019-01-04T09:14:09.332Z,1.20
2019-01-04T09:16:38.099Z,1.20
2019-01-04T09:19:08.351Z,1.20
2019-01-04T09:21:42.866Z,1.20
2019-01-04T09:24:14.266Z,1.20
2019-01-04T09:26:42.960Z,1.20
2019-01-04T09:29:11.590Z,1.30
2019-01-04T09:31:41.401Z,1.30
2019-01-04T09:34:10.729Z,1.30
2019-01-04T09:36:42.066Z,1.40
2019-01-04T09:39:10.642Z,1.40
2019-01-04T09:41:39.734Z,1.40
2019-01-04T09:44:10.218Z,1.40
2019-01-04T09:46:39.855Z,1.40
2019-01-04T09:49:12.635Z,1.40
2019-01-04T09:51:42.298Z,1.40
2019-01-04T09:54:11.018Z,1.40
2019-01-04T09:56:39.704Z,1.40
2019-01-04T09:59:08.478Z,1.40
2019-01-04T10:01:37.313Z,1.50
2019-01-04T10:04:06.082Z,1.60
2019-01-04T10:06:37.898Z,1.60
2019-01-04T10:09:07.463Z,1.60
2019-01-04T10:11:37.692Z,1.60
2019-01-04T10:14:07.914Z,1.60
2019-01-04T10:16:36.658Z,1.60
2019-01-04T10:19:08.271Z,1.70
2019-01-04T10:21:36.943Z,1.70
2019-01-04T10:24:05.731Z,1.80
2019-01-04T10:26:36.776Z,1.80
2019-01-04T10:29:05.657Z,1.80
2019-01-04T10:31:34.389Z,1.90
2019-01-04T10:34:03.252Z,1.90
2019-01-04T10:36:32.249Z,1.90
2019-01-04T10:39:01.049Z,1.90
2019-01-04T10:41:32.762Z,1.90
2019-01-04T10:44:04.232Z,1.90
2019-01-04T10:46:33.026Z,1.90
2019-01-04T10:49:01.821Z,1.90
2019-01-04T10:51:30.552Z,2.00
2019-01-04T10:53:59.625Z,1.90
2019-01-04T10:56:28.229Z,1.90
2019-01-04T10:58:58.651Z,1.90
2019-01-04T11:01:27.550Z,2.00
2019-01-04T11:03:58.358Z,2.00
2019-01-04T11:06:28.898Z,2.00
2019-01-04T11:08:57.754Z,2.00
2019-01-04T11:11:26.564Z,2.00
2019-01-04T11:13:55.842Z,2.00
2019-01-04T11:16:25.828Z,2.00
2019-01-04T11:18:54.676Z,2.00
2019-01-04T11:21:23.412Z,2.00
2019-01-04T11:24:14.262Z,2.00
2019-01-04T11:26:46.133Z,2.00
2019-01-04T11:29:23.685Z,2.00
2019-01-04T11:31:59.823Z,2.10
2019-01-04T11:34:37.131Z,2.10
2019-01-04T11:37:38.799Z,2.10
2019-01-04T11:40:25.206Z,2.00
2019-01-04T11:43:05.875Z,2.00
2019-01-04T11:45:52.192Z,2.00
2019-01-04T11:48:50.667Z,2.00
2019-01-04T11:51:26.104Z,2.00
2019-01-04T11:53:54.824Z,2.00
2019-01-04T11:56:23.502Z,2.00
2019-01-04T11:58:52.172Z,2.00
2019-01-04T12:01:23.765Z,1.90
2019-01-04T12:03:55.804Z,1.90
2019-01-04T12:06:24.587Z,2.00
2019-01-04T12:08:53.327Z,2.00
2019-01-04T12:11:22.258Z,1.90
2019-01-04T12:13:51.237Z,2.00
2019-01-04T12:16:20.799Z,2.00
2019-01-04T12:18:52.723Z,2.00
2019-01-04T12:21:22.747Z,1.90
2019-01-04T12:23:51.850Z,1.90
2019-01-04T12:26:20.634Z,1.90
2019-01-04T12:28:49.434Z,1.90
2019-01-04T12:31:19.473Z,1.90
2019-01-04T12:33:48.524Z,1.90
2019-01-04T12:36:22.151Z,1.90
2019-01-04T12:38:51.189Z,1.90
2019-01-04T12:41:20.172Z,2.00
2019-01-04T12:43:49.081Z,2.00
2019-01-04T12:46:17.993Z,1.90
2019-01-04T12:48:46.715Z,1.90
2019-01-04T12:51:15.629Z,1.90
2019-01-04T12:53:45.997Z,1.90
2019-01-04T12:56:14.980Z,1.90
2019-01-04T12:58:44.057Z,1.90
2019-01-04T13:01:15.892Z,1.90
2019-01-04T13:03:44.855Z,1.90
2019-01-04T13:06:18.033Z,1.90
2019-01-04T13:08:46.979Z,1.90
2019-01-04T13:11:15.846Z,1.90
2019-01-04T13:13:46.093Z,1.90
2019-01-04T13:16:17.337Z,1.90
2019-01-04T13:18:50.527Z,1.90
2019-01-04T13:21:19.262Z,1.90
2019-01-04T13:23:48.077Z,1.90
2019-01-04T13:26:16.793Z,1.90
2019-01-04T13:28:48.412Z,1.80
2019-01-04T13:31:20.356Z,1.80
2019-01-04T13:33:49.289Z,1.80
2019-01-04T13:36:17.991Z,1.80
2019-01-04T13:38:46.890Z,1.80
2019-01-04T13:41:16.055Z,1.90
2019-01-04T13:43:47.482Z,1.90
2019-01-04T13:46:16.341Z,1.80
2019-01-04T13:48:48.152Z,1.80
2019-01-04T13:51:16.884Z,1.80
2019-01-04T13:53:45.679Z,1.80
2019-01-04T13:56:14.856Z,1.80
2019-01-04T13:58:44.180Z,1.80
2019-01-04T14:01:13.455Z,1.80
2019-01-04T14:03:43.070Z,1.80
2019-01-04T14:06:12.065Z,1.80
2019-01-04T14:08:40.976Z,1.80
2019-01-04T14:11:09.835Z,1.80
2019-01-04T14:13:38.829Z,1.80
2019-01-04T14:16:09.218Z,1.90
2019-01-04T14:18:38.229Z,1.90
2019-01-04T14:21:08.503Z,1.90
2019-01-04T14:23:40.308Z,1.90
2019-01-04T14:26:09.293Z,1.90
2019-01-04T14:28:38.464Z,1.90
2019-01-04T14:31:07.294Z,1.90
2019-01-04T14:33:36.461Z,1.90
2019-01-04T14:36:05.401Z,1.80
2019-01-04T14:38:34.186Z,1.90
2019-01-04T14:41:03.398Z,1.90
2019-01-04T14:43:39.871Z,1.90
2019-01-04T14:46:08.832Z,1.80
2019-01-04T14:48:37.661Z,1.80
2019-01-04T14:51:06.570Z,1.90
2019-01-04T14:53:35.519Z,1.90
2019-01-04T14:56:04.517Z,1.90
2019-01-04T14:58:33.523Z,1.80
2019-01-04T15:01:05.827Z,1.90
2019-01-04T15:03:39.763Z,1.80
2019-01-04T15:06:13.117Z,1.80
2019-01-04T15:11:41.296Z,1.80
2019-01-04T15:14:28.299Z,1.80
2019-01-04T15:17:13.511Z,1.90
2019-01-04T15:19:39.916Z,1.90
2019-01-04T15:22:09.005Z,1.90
2019-01-04T15:24:38.267Z,1.90
2019-01-04T15:27:07.209Z,1.90
2019-01-04T15:29:40.225Z,1.90
2019-01-04T15:32:06.557Z,1.90
2019-01-04T15:34:35.304Z,1.90
2019-01-04T15:37:04.240Z,1.90
2019-01-04T15:39:33.077Z,1.90
2019-01-04T15:42:02.109Z,1.90
2019-01-04T15:44:32.502Z,1.80
2019-01-04T15:47:01.504Z,1.90
2019-01-04T15:49:35.638Z,1.90
2019-01-04T15:52:06.440Z,1.90
2019-01-04T15:54:35.222Z,1.90
2019-01-04T15:57:04.167Z,1.90
2019-01-04T15:59:37.135Z,1.90
2019-01-04T16:02:06.201Z,1.90
2019-01-04T16:04:42.919Z,1.90
2019-01-04T16:07:23.948Z,1.90
2019-01-04T16:09:52.669Z,1.90
2019-01-04T16:12:21.641Z,1.90
2019-01-04T16:14:53.133Z,1.90
2019-01-04T16:17:23.787Z,1.90
2019-01-04T16:19:55.585Z,1.90
2019-01-04T16:22:24.627Z,1.90
2019-01-04T16:24:54.894Z,2.00
2019-01-04T16:27:23.972Z,2.00
2019-01-04T16:29:52.818Z,2.00
2019-01-04T16:32:22.099Z,1.90
2019-01-04T16:34:51.138Z,2.00
2019-01-04T16:37:19.977Z,2.00
2019-01-04T16:39:49.334Z,2.00
2019-01-04T16:42:18.381Z,2.00
2019-01-04T16:44:53.417Z,2.00
2019-01-04T16:47:27.520Z,2.00
2019-01-04T16:49:56.713Z,2.00
2019-01-04T16:52:39.721Z,2.00
2019-01-04T16:55:15.916Z,2.00
2019-01-04T16:57:45.436Z,2.10
2019-01-04T17:00:14.429Z,2.10
2019-01-04T17:02:47.611Z,2.10
2019-01-04T17:05:16.483Z,2.10
2019-01-04T17:07:45.138Z,2.10
2019-01-04T17:10:17.909Z,2.20
2019-01-04T17:12:47.348Z,2.10
2019-01-04T17:15:18.616Z,2.20
2019-01-04T17:17:52.780Z,2.20
2019-01-04T17:20:32.661Z,2.10
2019-01-04T17:23:03.892Z,2.10
2019-01-04T17:25:39.190Z,2.10
2019-01-04T17:28:03.875Z,2.10
2019-01-04T17:30:33.028Z,2.10
2019-01-04T17:33:04.027Z,2.00
2019-01-04T17:35:33.159Z,2.00
2019-01-04T17:38:04.986Z,2.00
2019-01-04T17:40:34.860Z,2.00
2019-01-04T17:43:07.438Z,1.90
2019-01-04T17:45:36.630Z,2.00
2019-01-04T17:48:05.611Z,2.00
2019-01-04T17:50:34.875Z,2.00
2019-01-04T17:53:03.829Z,2.10
2019-01-04T17:55:38.270Z,2.00
2019-01-04T17:58:08.622Z,2.00
2019-01-04T18:00:42.505Z,2.10
2019-01-04T18:03:16.232Z,2.10
2019-01-04T18:05:45.708Z,2.10
2019-01-04T18:08:14.761Z,2.10
2019-01-04T18:10:43.612Z,2.10
2019-01-04T18:13:12.631Z,2.10
2019-01-04T18:15:43.097Z,2.10
2019-01-04T18:18:17.718Z,2.10
2019-01-04T18:20:54.862Z,2.20
2019-01-04T18:23:23.659Z,2.20
2019-01-04T18:25:52.534Z,2.20
2019-01-04T18:28:21.340Z,2.20
2019-01-04T18:30:50.987Z,2.20
2019-01-04T18:33:19.855Z,2.20
2019-01-04T18:35:51.251Z,2.20
2019-01-04T18:38:20.146Z,2.20
2019-01-04T18:40:52.034Z,2.20
2019-01-04T18:43:20.685Z,2.20
2019-01-04T18:45:49.467Z,2.20
2019-01-04T18:48:18.120Z,2.20
2019-01-04T18:50:46.926Z,2.20
2019-01-04T18:53:16.031Z,2.20
2019-01-04T18:55:51.756Z,2.30
2019-01-04T18:58:30.416Z,2.30
2019-01-04T19:00:59.068Z,2.30
2019-01-04T19:03:28.920Z,2.30
2019-01-04T19:05:57.934Z,2.30
2019-01-04T19:08:26.726Z,2.30
2019-01-04T19:10:55.576Z,2.40
2019-01-04T19:13:26.926Z,2.30
2019-01-04T19:15:55.715Z,2.30
2019-01-04T19:18:24.740Z,2.30
2019-01-04T19:20:53.473Z,2.30
2019-01-04T19:23:22.292Z,2.30
2019-01-04T19:25:51.239Z,2.40
2019-01-04T19:28:19.972Z,2.40
2019-01-04T19:30:48.798Z,2.30
2019-01-04T19:33:20.013Z,2.30
2019-01-04T19:35:48.665Z,2.30
2019-01-04T19:38:17.385Z,2.20
2019-01-04T19:40:46.246Z,2.30
2019-01-04T19:43:15.119Z,2.20
2019-01-04T19:45:43.883Z,2.20
2019-01-04T19:48:12.748Z,2.20
2019-01-04T19:50:41.442Z,2.20
2019-01-04T19:53:10.275Z,2.20
2019-01-04T19:55:44.292Z,2.20
2019-01-04T19:58:18.329Z,2.30
2019-01-04T20:00:47.661Z,2.30
2019-01-04T20:03:16.528Z,2.30
2019-01-04T20:06:12.474Z,2.30
2019-01-04T20:09:24.648Z,2.30
2019-01-04T20:12:33.835Z,2.30
2019-01-04T20:15:09.864Z,2.30
2019-01-04T20:17:56.750Z,2.30
2019-01-04T20:20:31.051Z,2.30
2019-01-04T20:23:10.844Z,2.30
2019-01-04T20:25:54.343Z,2.30
2019-01-04T20:28:30.894Z,2.30
2019-01-04T20:31:16.913Z,2.30
2019-01-04T20:33:56.248Z,2.30
2019-01-04T20:36:43.974Z,2.40
2019-01-04T20:39:17.103Z,2.30
2019-01-04T20:42:03.910Z,2.40
2019-01-04T20:44:35.894Z,2.40
2019-01-04T20:47:15.180Z,2.30
2019-01-04T20:50:00.526Z,2.30
2019-01-04T20:52:45.849Z,2.30
2019-01-04T20:55:31.326Z,2.40
2019-01-04T20:58:07.620Z,2.40
2019-01-04T21:00:44.035Z,2.30
2019-01-04T21:03:31.330Z,2.30
2019-01-04T21:06:16.207Z,2.40
2019-01-04T21:08:52.091Z,2.40
2019-01-04T21:11:25.395Z,2.40
2019-01-04T21:13:59.026Z,2.40
2019-01-04T21:16:48.927Z,2.40
2019-01-04T21:19:35.413Z,2.40
2019-01-04T21:22:11.869Z,2.40
2019-01-04T21:24:42.204Z,2.30
2019-01-04T21:27:28.085Z,2.40
2019-01-04T21:30:16.923Z,2.40
2019-01-04T21:32:56.131Z,2.40
2019-01-04T21:35:38.532Z,2.40
2019-01-04T21:38:14.890Z,2.40
2019-01-04T21:40:45.899Z,2.40
2019-01-04T21:43:32.477Z,2.40
2019-01-04T21:46:17.640Z,2.40
2019-01-04T21:48:59.491Z,2.40
2019-01-04T21:51:32.217Z,2.40
2019-01-04T21:54:18.120Z,2.40
2019-01-04T21:57:05.148Z,2.40
2019-01-04T21:59:39.834Z,2.50
2019-01-04T22:02:26.465Z,2.40
2019-01-04T22:05:14.840Z,2.40
2019-01-04T22:07:51.871Z,2.50
2019-01-04T22:10:38.773Z,2.40
2019-01-04T22:13:30.753Z,2.50
2019-01-04T22:16:17.329Z,2.50
2019-01-04T22:19:02.920Z,2.40
2019-01-04T22:21:48.683Z,2.50
2019-01-04T22:24:31.299Z,2.40
2019-01-04T22:27:20.036Z,2.40
2019-01-04T22:30:00.504Z,2.40
2019-01-04T22:32:32.294Z,2.40
2019-01-04T22:35:19.391Z,2.40
2019-01-04T22:37:52.874Z,2.40
2019-01-04T22:40:40.119Z,2.40
2019-01-04T22:43:10.645Z,2.40
2019-01-04T22:45:54.486Z,2.40
2019-01-04T22:48:36.746Z,2.40
2019-01-04T22:51:23.523Z,2.40
2019-01-04T22:54:10.847Z,2.40
2019-01-04T22:56:53.295Z,2.40
2019-01-04T22:59:41.048Z,2.40
2019-01-04T23:02:14.246Z,2.40
2019-01-04T23:05:01.060Z,2.40
2019-01-04T23:07:40.242Z,2.40
2019-01-04T23:10:29.773Z,2.40
2019-01-04T23:13:03.014Z,2.40
2019-01-04T23:15:48.283Z,2.40
2019-01-04T23:18:23.295Z,2.40
2019-01-04T23:20:58.532Z,2.40
2019-01-04T23:23:35.162Z,2.40
2019-01-04T23:26:19.434Z,2.40
2019-01-04T23:28:54.922Z,2.50
2019-01-04T23:31:41.456Z,2.40
2019-01-04T23:34:11.988Z,2.50
2019-01-04T23:36:42.893Z,2.40
2019-01-04T23:39:22.607Z,2.50
2019-01-04T23:42:04.753Z,2.40
2019-01-04T23:44:47.023Z,2.50
2019-01-04T23:47:20.300Z,2.40
2019-01-04T23:50:07.117Z,2.40
2019-01-04T23:52:54.873Z,2.50
2019-01-04T23:55:35.305Z,2.50
2019-01-04T23:58:17.483Z,2.40
